createdAt,value
2022-12-13T00:01:42.318Z,15.63
2022-12-13T00:04:44.062Z,15.97
2022-12-13T00:07:45.769Z,15.67
2022-12-13T00:10:48.126Z,15.43
2022-12-13T00:13:49.970Z,15.33
2022-12-13T00:16:51.782Z,14.87
2022-12-13T00:19:53.611Z,12.97
2022-12-13T00:22:55.974Z,13.37
2022-12-13T00:26:10.841Z,13.43
2022-12-13T00:29:12.600Z,12.47
2022-12-13T00:32:14.777Z,12.83
2022-12-13T00:35:16.858Z,10.97
2022-12-13T00:38:18.928Z,11.83
2022-12-13T00:41:20.615Z,12.47
2022-12-13T00:44:22.786Z,10.53
2022-12-13T00:47:24.426Z,12.50
2022-12-13T00:50:26.287Z,10.80
2022-12-13T00:53:27.899Z,11.40
2022-12-13T00:56:31.914Z,11.00
2022-12-13T00:59:33.625Z,13.00
2022-12-13T01:02:35.268Z,12.27
2022-12-13T01:06:13.071Z,9.57
2022-12-13T01:08:58.477Z,10.17
2022-12-13T01:12:03.441Z,10.30
2022-12-13T01:15:06.818Z,8.87
2022-12-13T01:18:08.666Z,10.60
2022-12-13T01:21:19.203Z,9.20
2022-12-13T01:24:22.817Z,10.60
2022-12-13T01:27:24.466Z,10.20
2022-12-13T01:30:27.081Z,10.20
2022-12-13T01:33:29.616Z,12.03
2022-12-13T01:36:31.275Z,9.40
2022-12-13T01:39:38.225Z,10.20
2022-12-13T01:42:40.220Z,10.63
2022-12-13T01:45:43.043Z,9.60
2022-12-13T01:48:50.023Z,10.97
2022-12-13T01:51:56.166Z,10.80
2022-12-13T01:55:03.581Z,9.70
2022-12-13T01:58:06.387Z,9.97
2022-12-13T02:01:08.819Z,10.83
2022-12-13T02:04:10.512Z,10.57
2022-12-13T02:07:22.846Z,10.43
2022-12-13T02:10:26.767Z,9.83
2022-12-13T02:13:28.463Z,9.27
2022-12-13T02:17:00.150Z,9.37
2022-12-13T02:20:01.869Z,9.07
2022-12-13T02:23:03.457Z,11.53
2022-12-13T02:26:26.319Z,9.87
2022-12-13T02:29:55.619Z,9.33
2022-12-13T02:33:21.726Z,9.10
2022-12-13T02:36:46.513Z,12.83
2022-12-13T02:39:56.579Z,11.03
2022-12-13T02:43:13.354Z,11.93
2022-12-13T02:46:20.048Z,11.73
2022-12-13T02:49:24.829Z,10.50
2022-12-13T02:52:28.980Z,12.27
2022-12-13T02:55:32.400Z,13.03
2022-12-13T02:58:37.534Z,12.53
2022-12-13T03:02:10.143Z,11.43
2022-12-13T03:06:01.303Z,10.97
2022-12-13T03:09:39.220Z,13.07
2022-12-13T03:13:14.710Z,11.53
2022-12-13T03:16:28.010Z,11.67
2022-12-13T03:19:29.836Z,12.47
2022-12-13T03:22:34.764Z,10.87
2022-12-13T03:25:36.455Z,12.10
2022-12-13T03:28:38.706Z,12.23
2022-12-13T03:31:40.683Z,12.00
2022-12-13T03:34:44.051Z,13.40
2022-12-13T03:37:53.778Z,10.77
2022-12-13T03:41:01.632Z,12.60
2022-12-13T03:44:05.397Z,12.40
2022-12-13T03:47:07.212Z,13.20
2022-12-13T03:50:26.808Z,13.27
2022-12-13T03:53:33.187Z,12.03
2022-12-13T03:56:35.610Z,10.73
2022-12-13T03:59:38.974Z,10.37
2022-12-13T04:02:40.693Z,12.73
2022-12-13T04:05:42.881Z,12.40
2022-12-13T04:08:44.585Z,9.60
2022-12-13T04:12:04.928Z,11.50
2022-12-13T04:15:07.435Z,11.20
2022-12-13T04:18:09.172Z,12.00
2022-12-13T04:21:10.943Z,9.93
2022-12-13T04:24:12.582Z,10.93
2022-12-13T04:27:14.235Z,11.60
2022-12-13T04:30:15.944Z,11.10
2022-12-13T04:33:20.948Z,10.20
2022-12-13T04:36:32.046Z,9.67
2022-12-13T04:39:34.811Z,11.33
2022-12-13T04:42:36.562Z,11.33
2022-12-13T04:45:38.290Z,11.00
2022-12-13T04:48:39.982Z,9.30
2022-12-13T04:51:41.652Z,12.13
2022-12-13T04:54:55.962Z,10.23
2022-12-13T04:57:57.941Z,10.57
2022-12-13T05:00:59.716Z,11.63
2022-12-13T05:04:03.876Z,12.30
2022-12-13T05:07:05.710Z,10.50
2022-12-13T05:10:07.779Z,11.37
2022-12-13T05:13:09.453Z,12.80
2022-12-13T05:16:11.743Z,11.87
2022-12-13T05:19:13.473Z,13.63
2022-12-13T05:22:20.514Z,13.77
2022-12-13T05:25:23.924Z,13.90
2022-12-13T05:28:28.985Z,13.73
2022-12-13T05:31:30.868Z,12.10
2022-12-13T05:34:32.616Z,9.93
2022-12-13T05:37:34.729Z,14.40
2022-12-13T05:40:36.732Z,11.50
2022-12-13T05:43:43.097Z,10.63
2022-12-13T05:46:45.456Z,10.80
2022-12-13T05:49:47.111Z,11.10
2022-12-13T05:52:48.807Z,9.83
2022-12-13T05:55:50.458Z,9.53
2022-12-13T05:58:54.041Z,11.80
2022-12-13T06:01:56.955Z,9.73
2022-12-13T06:04:58.699Z,10.33
2022-12-13T06:08:00.535Z,10.27
2022-12-13T06:11:11.577Z,13.07
2022-12-13T06:14:22.197Z,10.50
2022-12-13T06:17:25.177Z,11.73
2022-12-13T06:20:26.943Z,11.97
2022-12-13T06:23:30.642Z,9.73
2022-12-13T06:26:32.279Z,10.00
2022-12-13T06:29:33.952Z,12.00
2022-12-13T06:32:38.008Z,11.47
2022-12-13T06:35:42.861Z,9.57
2022-12-13T06:38:44.543Z,9.57
2022-12-13T06:41:46.654Z,9.87
2022-12-13T06:44:51.780Z,9.80
2022-12-13T06:47:58.642Z,9.80
2022-12-13T06:51:05.402Z,10.43
2022-12-13T06:54:07.810Z,9.80
2022-12-13T06:57:13.219Z,9.53
2022-12-13T07:00:15.721Z,9.53
2022-12-13T07:03:24.298Z,8.13
2022-12-13T07:06:27.256Z,10.33
2022-12-13T07:09:31.576Z,9.43
2022-12-13T07:12:33.449Z,8.53
2022-12-13T07:15:35.655Z,9.87
2022-12-13T07:18:37.834Z,8.40
2022-12-13T07:21:40.035Z,8.70
2022-12-13T07:24:42.366Z,10.83
2022-12-13T07:28:06.681Z,8.47
2022-12-13T07:31:13.504Z,9.63
2022-12-13T07:34:16.474Z,8.50
2022-12-13T07:37:30.002Z,8.33
2022-12-13T07:40:37.094Z,10.63
2022-12-13T07:43:38.962Z,8.73
2022-12-13T07:46:40.960Z,8.40
2022-12-13T07:49:43.054Z,10.00
2022-12-13T07:52:45.364Z,10.13
2022-12-13T07:55:47.324Z,9.20
2022-12-13T07:58:49.158Z,8.27
2022-12-13T08:01:51.413Z,10.37
2022-12-13T08:04:54.453Z,10.30
2022-12-13T11:31:01.641Z,10.47
2022-12-13T11:34:42.344Z,10.33
2022-12-13T11:38:24.315Z,9.13
2022-12-13T11:41:39.343Z,10.60
2022-12-13T11:45:00.478Z,11.77
2022-12-13T11:48:25.249Z,9.80
2022-12-13T11:51:47.334Z,9.43
2022-12-13T11:55:01.557Z,9.87
2022-12-13T11:58:53.973Z,11.63
2022-12-13T12:01:53.455Z,10.00
2022-12-13T12:05:05.581Z,11.60
2022-12-13T12:08:45.764Z,10.53
2022-12-13T12:12:06.835Z,9.43
2022-12-13T12:15:27.586Z,10.33
2022-12-13T12:18:29.833Z,12.50
2022-12-13T12:22:04.822Z,10.77
2022-12-13T12:25:17.548Z,12.93
2022-12-13T12:28:28.396Z,10.50
2022-12-13T12:32:08.068Z,11.73
2022-12-13T12:35:46.165Z,10.17
2022-12-13T12:39:01.642Z,10.60
2022-12-13T12:42:16.071Z,10.53
2022-12-13T12:49:31.069Z,10.77
2022-12-13T12:53:07.672Z,12.03
2022-12-13T12:56:34.320Z,13.10
2022-12-13T13:00:01.432Z,12.40
2022-12-13T13:07:39.918Z,13.73
2022-12-13T13:10:49.889Z,13.20
2022-12-13T13:14:01.293Z,14.47
2022-12-13T13:17:25.154Z,12.57
2022-12-13T13:20:30.363Z,13.00
2022-12-13T13:23:40.790Z,12.33
2022-12-13T13:26:46.838Z,13.07
2022-12-13T13:29:50.135Z,11.70
2022-12-13T13:33:01.326Z,12.20
2022-12-13T13:36:11.751Z,11.70
2022-12-13T13:39:33.909Z,12.53
2022-12-13T13:43:11.796Z,12.73
2022-12-13T13:46:14.671Z,12.53
2022-12-13T13:49:24.681Z,11.90
2022-12-13T13:53:13.702Z,12.97
2022-12-13T13:57:03.162Z,13.83
2022-12-13T14:00:15.586Z,23.37
2022-12-13T14:03:41.080Z,16.07
2022-12-13T14:07:13.089Z,14.30
2022-12-13T14:10:35.255Z,11.10
2022-12-13T14:13:47.230Z,13.37
2022-12-13T14:16:49.573Z,12.30
2022-12-13T14:20:30.041Z,11.13
2022-12-13T14:23:35.302Z,10.43
2022-12-13T14:27:08.480Z,11.93
2022-12-13T14:30:28.538Z,10.57
2022-12-13T14:33:33.704Z,10.33
2022-12-13T14:36:39.240Z,12.00
2022-12-13T14:39:51.316Z,10.83
2022-12-13T14:42:56.531Z,13.63
2022-12-13T14:46:04.322Z,13.40
2022-12-13T14:49:10.738Z,13.97
2022-12-13T14:52:26.353Z,13.13
2022-12-13T14:55:36.284Z,11.20
2022-12-13T14:58:47.244Z,12.03
2022-12-13T15:02:02.689Z,12.07
2022-12-13T15:05:06.346Z,11.30
2022-12-13T15:08:10.412Z,10.23
2022-12-13T15:11:14.287Z,10.87
2022-12-13T15:14:19.911Z,11.03
2022-12-13T15:17:34.475Z,9.83
2022-12-13T15:20:42.448Z,10.53
2022-12-13T15:23:55.241Z,10.17
2022-12-13T15:27:01.889Z,9.73
2022-12-13T15:30:04.770Z,10.97
2022-12-13T15:33:28.888Z,12.43
2022-12-13T15:36:38.116Z,10.43
2022-12-13T15:39:47.877Z,11.10
2022-12-13T15:42:51.924Z,10.60
2022-12-13T15:45:54.388Z,12.40
2022-12-13T15:49:04.318Z,10.60
2022-12-13T15:52:13.871Z,11.67
2022-12-13T15:55:19.714Z,10.10
2022-12-13T15:58:26.743Z,9.93
2022-12-13T16:01:32.225Z,11.00
2022-12-13T16:04:34.113Z,13.77
2022-12-13T16:07:39.940Z,12.00
2022-12-13T16:10:50.851Z,11.47
2022-12-13T16:13:58.241Z,10.57
2022-12-13T16:17:15.184Z,11.00
2022-12-13T16:20:18.196Z,9.37
2022-12-13T16:23:27.792Z,11.37
2022-12-13T16:26:31.279Z,11.93
2022-12-13T16:29:33.289Z,14.57
2022-12-13T16:32:44.543Z,17.70
2022-12-13T16:35:57.276Z,14.63
2022-12-13T16:38:59.458Z,17.03
2022-12-13T16:42:01.626Z,12.77
2022-12-13T16:45:40.136Z,13.07
2022-12-13T16:48:28.853Z,13.03
2022-12-13T16:51:33.669Z,12.23
2022-12-13T16:54:35.903Z,11.57
2022-12-13T16:57:38.527Z,13.20
2022-12-13T17:00:51.065Z,12.40
2022-12-13T17:04:03.223Z,11.77
2022-12-13T17:07:09.400Z,13.47
2022-12-13T17:10:28.924Z,12.57
2022-12-13T17:13:33.774Z,13.40
2022-12-13T17:16:36.073Z,13.13
2022-12-13T17:19:42.256Z,14.70
2022-12-13T17:22:45.861Z,14.73
2022-12-13T17:25:58.477Z,15.90
2022-12-13T17:29:00.808Z,15.10
2022-12-13T17:32:04.008Z,11.27
2022-12-13T17:35:06.517Z,12.13
2022-12-13T17:38:11.403Z,10.10
2022-12-13T17:41:14.343Z,10.33
2022-12-13T17:44:19.204Z,10.70
2022-12-13T17:47:21.176Z,12.40
2022-12-13T17:50:23.070Z,11.13
2022-12-13T17:53:27.023Z,18.20
2022-12-13T17:56:29.208Z,11.73
2022-12-13T17:59:48.511Z,10.83
2022-12-13T18:03:08.075Z,12.30
2022-12-13T18:06:12.856Z,13.43
2022-12-13T18:09:23.074Z,13.00
2022-12-13T18:12:31.465Z,11.60
2022-12-13T18:15:48.583Z,12.83
2022-12-13T18:18:55.844Z,10.77
2022-12-13T18:22:01.764Z,10.50
2022-12-13T18:25:13.349Z,10.87
2022-12-13T18:28:22.933Z,13.00
2022-12-13T18:31:28.288Z,14.10
2022-12-13T18:34:30.386Z,12.53
2022-12-13T18:37:32.230Z,12.60
2022-12-13T18:40:33.896Z,11.87
2022-12-13T18:43:35.650Z,12.97
2022-12-13T18:46:38.585Z,13.07
2022-12-13T18:49:40.417Z,13.73
2022-12-13T18:52:43.286Z,15.33
2022-12-13T18:55:45.089Z,11.67
2022-12-13T18:58:50.688Z,15.03
2022-12-13T19:01:52.448Z,16.10
2022-12-13T19:08:51.842Z,15.27
2022-12-13T19:11:53.699Z,13.07
2022-12-13T19:14:55.341Z,12.57
2022-12-13T19:17:57.032Z,13.83
2022-12-13T19:20:58.842Z,14.00
2022-12-13T19:24:01.415Z,14.20
2022-12-13T19:27:03.209Z,13.77
2022-12-13T19:30:05.550Z,12.70
2022-12-13T19:33:07.827Z,14.57
2022-12-13T19:36:10.635Z,14.63
2022-12-13T19:39:13.132Z,14.33
2022-12-13T19:42:14.867Z,20.60
2022-12-13T19:45:16.685Z,17.77
2022-12-13T19:48:18.427Z,13.60
2022-12-13T19:51:21.307Z,19.03
2022-12-13T19:54:24.770Z,15.43
2022-12-13T19:57:26.851Z,14.90
2022-12-13T20:00:28.672Z,15.63
2022-12-13T20:03:41.795Z,15.20
2022-12-13T20:06:43.710Z,12.83
2022-12-13T20:09:45.503Z,12.00
2022-12-13T20:12:47.261Z,12.13
2022-12-13T20:15:49.186Z,12.40
2022-12-13T20:18:56.031Z,11.80
2022-12-13T20:21:57.852Z,11.60
2022-12-13T20:24:59.700Z,13.20
2022-12-13T20:28:01.457Z,12.70
2022-12-13T20:31:08.846Z,10.77
2022-12-13T20:34:14.212Z,11.07
2022-12-13T20:37:15.964Z,12.60
2022-12-13T20:40:21.589Z,11.30
2022-12-13T20:43:26.837Z,11.83
2022-12-13T20:46:29.864Z,12.07
2022-12-13T20:49:31.563Z,12.83
2022-12-13T20:52:33.838Z,11.33
2022-12-13T20:55:35.638Z,12.23
2022-12-13T20:58:40.134Z,10.93
2022-12-13T21:01:45.069Z,9.63
2022-12-13T21:04:50.859Z,10.60
2022-12-13T21:08:18.711Z,11.93
2022-12-13T21:11:24.919Z,10.10
2022-12-13T21:14:29.941Z,11.50
2022-12-13T21:17:31.814Z,11.50
2022-12-13T21:20:33.570Z,10.13
2022-12-13T21:23:35.839Z,8.67
2022-12-13T21:26:37.722Z,10.10
2022-12-13T21:29:39.519Z,10.17
2022-12-13T21:32:41.225Z,9.30
2022-12-13T21:35:42.969Z,10.77
2022-12-13T21:38:45.015Z,9.97
2022-12-13T21:41:46.847Z,10.00
2022-12-13T21:44:48.682Z,11.07
2022-12-13T21:47:50.347Z,8.10
2022-12-13T21:50:52.024Z,9.60
2022-12-13T21:53:54.397Z,9.03
2022-12-13T21:57:14.728Z,9.23
2022-12-13T22:00:16.616Z,9.60
2022-12-13T22:03:18.443Z,11.20
2022-12-13T22:06:20.302Z,11.27
2022-12-13T22:09:22.026Z,12.07
2022-12-13T22:12:32.503Z,10.50
2022-12-13T22:15:34.225Z,10.37
2022-12-13T22:18:35.983Z,9.80
2022-12-13T22:21:37.709Z,8.87
2022-12-13T22:24:39.413Z,9.37
2022-12-13T22:27:41.210Z,9.40
2022-12-13T22:30:43.051Z,8.63
2022-12-13T22:33:44.858Z,10.47
2022-12-13T22:36:46.540Z,10.57
2022-12-13T22:39:48.384Z,8.67
2022-12-13T22:42:50.178Z,11.13
2022-12-13T22:45:51.943Z,8.43
2022-12-13T22:48:54.590Z,9.37
2022-12-13T22:51:57.367Z,9.80
2022-12-13T22:54:59.082Z,7.20
2022-12-13T22:58:00.987Z,9.83
2022-12-13T23:01:10.278Z,9.47
2022-12-13T23:04:12.585Z,8.80
2022-12-13T23:07:14.287Z,8.63
2022-12-13T23:10:34.888Z,8.00
2022-12-13T23:13:36.626Z,9.13
2022-12-13T23:16:38.955Z,9.33
2022-12-13T23:19:49.678Z,8.00
2022-12-13T23:22:53.473Z,7.37
2022-12-13T23:25:55.223Z,7.53
2022-12-13T23:28:59.413Z,8.37
2022-12-13T23:32:01.236Z,9.50
2022-12-13T23:35:03.177Z,9.33
2022-12-13T23:38:04.992Z,7.57
2022-12-13T23:41:09.109Z,7.57
2022-12-13T23:44:10.992Z,8.57
2022-12-13T23:47:12.769Z,7.33
2022-12-13T23:50:14.511Z,7.67
2022-12-13T23:53:16.243Z,7.97
2022-12-13T23:56:18.069Z,8.10
2022-12-13T23:59:19.839Z,8.00
